sensor_id;sensor_type;location;lat;lon;timestamp;P1;durP1;ratioP1;P2;durP2;ratioP2
42094;SDS011;27753;55.724;37.612;2023-04-10T00:00:07;17.17;;;13.57;;
42094;SDS011;27753;55.724;37.612;2023-04-10T00:02:34;18.67;;;12.60;;
42094;SDS011;27753;55.724;37.612;2023-04-10T00:05:01;17.03;;;13.03;;
42094;SDS011;27753;55.724;37.612;2023-04-10T00:07:27;17.55;;;13.43;;
42094;SDS011;27753;55.724;37.612;2023-04-10T00:09:53;19.77;;;13.40;;
42094;SDS011;27753;55.724;37.612;2023-04-10T00:12:19;16.15;;;12.65;;
42094;SDS011;27753;55.724;37.612;2023-04-10T00:14:45;21.67;;;14.05;;
42094;SDS011;27753;55.724;37.612;2023-04-10T00:17:11;21.45;;;13.65;;
42094;SDS011;27753;55.724;37.612;2023-04-10T00:19:37;22.55;;;12.77;;
42094;SDS011;27753;55.724;37.612;2023-04-10T00:22:03;23.58;;;12.75;;
42094;SDS011;27753;55.724;37.612;2023-04-10T00:24:29;16.13;;;12.50;;
42094;SDS011;27753;55.724;37.612;2023-04-10T00:26:55;22.52;;;13.65;;
42094;SDS011;27753;55.724;37.612;2023-04-10T00:29:21;18.55;;;12.85;;
42094;SDS011;27753;55.724;37.612;2023-04-10T00:31:48;18.90;;;14.07;;
42094;SDS011;27753;55.724;37.612;2023-04-10T00:34:14;19.95;;;14.38;;
42094;SDS011;27753;55.724;37.612;2023-04-10T00:36:40;20.35;;;13.45;;
42094;SDS011;27753;55.724;37.612;2023-04-10T00:39:07;22.77;;;14.05;;
42094;SDS011;27753;55.724;37.612;2023-04-10T00:41:33;20.65;;;12.52;;
42094;SDS011;27753;55.724;37.612;2023-04-10T00:43:59;18.00;;;12.15;;
42094;SDS011;27753;55.724;37.612;2023-04-10T00:46:26;18.88;;;12.65;;
42094;SDS011;27753;55.724;37.612;2023-04-10T00:48:52;19.58;;;13.40;;
42094;SDS011;27753;55.724;37.612;2023-04-10T00:51:20;18.58;;;12.50;;
42094;SDS011;27753;55.724;37.612;2023-04-10T00:53:47;19.57;;;12.67;;
42094;SDS011;27753;55.724;37.612;2023-04-10T00:56:18;17.83;;;12.60;;
42094;SDS011;27753;55.724;37.612;2023-04-10T00:58:45;17.48;;;12.55;;
42094;SDS011;27753;55.724;37.612;2023-04-10T01:01:11;17.27;;;12.00;;
42094;SDS011;27753;55.724;37.612;2023-04-10T01:03:40;16.98;;;12.68;;
42094;SDS011;27753;55.724;37.612;2023-04-10T01:09:04;18.73;;;12.40;;
42094;SDS011;27753;55.724;37.612;2023-04-10T01:11:44;18.58;;;13.80;;
42094;SDS011;27753;55.724;37.612;2023-04-10T01:17:00;16.55;;;13.77;;
42094;SDS011;27753;55.724;37.612;2023-04-10T01:22:03;21.88;;;15.10;;
42094;SDS011;27753;55.724;37.612;2023-04-10T01:24:46;20.30;;;14.13;;
42094;SDS011;27753;55.724;37.612;2023-04-10T01:29:57;21.27;;;14.57;;
42094;SDS011;27753;55.724;37.612;2023-04-10T01:32:27;19.67;;;13.80;;
42094;SDS011;27753;55.724;37.612;2023-04-10T01:34:56;20.95;;;14.65;;
42094;SDS011;27753;55.724;37.612;2023-04-10T01:37:29;21.77;;;13.30;;
42094;SDS011;27753;55.724;37.612;2023-04-10T01:40:02;19.65;;;13.18;;
42094;SDS011;27753;55.724;37.612;2023-04-10T01:42:33;24.23;;;14.27;;
42094;SDS011;27753;55.724;37.612;2023-04-10T01:45:03;21.30;;;13.68;;
42094;SDS011;27753;55.724;37.612;2023-04-10T01:47:32;22.05;;;15.07;;
42094;SDS011;27753;55.724;37.612;2023-04-10T01:49:58;20.27;;;14.52;;
42094;SDS011;27753;55.724;37.612;2023-04-10T01:52:25;21.67;;;14.70;;
42094;SDS011;27753;55.724;37.612;2023-04-10T01:54:53;22.98;;;15.07;;
42094;SDS011;27753;55.724;37.612;2023-04-10T01:57:20;19.83;;;15.35;;
42094;SDS011;27753;55.724;37.612;2023-04-10T01:59:46;21.15;;;15.52;;
42094;SDS011;27753;55.724;37.612;2023-04-10T02:02:12;23.88;;;17.55;;
42094;SDS011;27753;55.724;37.612;2023-04-10T02:04:38;24.65;;;16.98;;
42094;SDS011;27753;55.724;37.612;2023-04-10T02:07:11;23.92;;;17.38;;
42094;SDS011;27753;55.724;37.612;2023-04-10T02:12:45;23.70;;;17.35;;
42094;SDS011;27753;55.724;37.612;2023-04-10T02:15:18;28.17;;;17.10;;
42094;SDS011;27753;55.724;37.612;2023-04-10T02:17:46;23.13;;;17.17;;
42094;SDS011;27753;55.724;37.612;2023-04-10T02:20:13;25.38;;;17.08;;
42094;SDS011;27753;55.724;37.612;2023-04-10T02:22:42;20.00;;;16.65;;
42094;SDS011;27753;55.724;37.612;2023-04-10T02:25:09;25.30;;;15.88;;
42094;SDS011;27753;55.724;37.612;2023-04-10T02:27:36;24.65;;;17.20;;
42094;SDS011;27753;55.724;37.612;2023-04-10T02:30:02;25.70;;;16.00;;
42094;SDS011;27753;55.724;37.612;2023-04-10T02:32:29;26.60;;;17.63;;
42094;SDS011;27753;55.724;37.612;2023-04-10T02:34:57;23.83;;;17.60;;
42094;SDS011;27753;55.724;37.612;2023-04-10T02:37:23;22.92;;;16.80;;
42094;SDS011;27753;55.724;37.612;2023-04-10T02:39:49;25.05;;;17.50;;
42094;SDS011;27753;55.724;37.612;2023-04-10T02:42:16;25.23;;;17.93;;
42094;SDS011;27753;55.724;37.612;2023-04-10T02:44:42;26.48;;;17.73;;
42094;SDS011;27753;55.724;37.612;2023-04-10T02:47:08;25.45;;;17.63;;
42094;SDS011;27753;55.724;37.612;2023-04-10T02:49:34;27.48;;;17.25;;
42094;SDS011;27753;55.724;37.612;2023-04-10T02:52:00;25.58;;;17.75;;
42094;SDS011;27753;55.724;37.612;2023-04-10T02:54:26;24.08;;;17.92;;
42094;SDS011;27753;55.724;37.612;2023-04-10T02:56:52;26.83;;;18.48;;
42094;SDS011;27753;55.724;37.612;2023-04-10T02:59:18;28.27;;;18.27;;
42094;SDS011;27753;55.724;37.612;2023-04-10T03:01:45;25.83;;;16.63;;
42094;SDS011;27753;55.724;37.612;2023-04-10T03:04:11;22.77;;;15.40;;
42094;SDS011;27753;55.724;37.612;2023-04-10T03:06:37;22.95;;;13.57;;
42094;SDS011;27753;55.724;37.612;2023-04-10T03:09:03;15.60;;;9.05;;
42094;SDS011;27753;55.724;37.612;2023-04-10T03:11:29;11.23;;;3.83;;
42094;SDS011;27753;55.724;37.612;2023-04-10T03:13:55;12.35;;;7.88;;
42094;SDS011;27753;55.724;37.612;2023-04-10T03:16:24;15.90;;;8.40;;
42094;SDS011;27753;55.724;37.612;2023-04-10T03:18:51;14.00;;;9.25;;
42094;SDS011;27753;55.724;37.612;2023-04-10T03:21:17;17.05;;;9.30;;
42094;SDS011;27753;55.724;37.612;2023-04-10T03:23:43;21.70;;;11.88;;
42094;SDS011;27753;55.724;37.612;2023-04-10T03:26:10;15.10;;;12.48;;
42094;SDS011;27753;55.724;37.612;2023-04-10T03:28:36;17.08;;;12.57;;
42094;SDS011;27753;55.724;37.612;2023-04-10T03:31:04;17.70;;;12.18;;
42094;SDS011;27753;55.724;37.612;2023-04-10T03:33:30;13.63;;;11.18;;
42094;SDS011;27753;55.724;37.612;2023-04-10T03:35:57;14.40;;;11.07;;
42094;SDS011;27753;55.724;37.612;2023-04-10T03:38:23;19.38;;;13.45;;
42094;SDS011;27753;55.724;37.612;2023-04-10T03:40:49;20.65;;;12.65;;
42094;SDS011;27753;55.724;37.612;2023-04-10T03:43:14;19.83;;;13.85;;
42094;SDS011;27753;55.724;37.612;2023-04-10T03:45:40;18.65;;;13.30;;
42094;SDS011;27753;55.724;37.612;2023-04-10T03:48:06;20.58;;;13.38;;
42094;SDS011;27753;55.724;37.612;2023-04-10T03:50:32;20.63;;;13.77;;
42094;SDS011;27753;55.724;37.612;2023-04-10T03:52:59;27.00;;;18.08;;
42094;SDS011;27753;55.724;37.612;2023-04-10T03:55:25;16.00;;;12.30;;
42094;SDS011;27753;55.724;37.612;2023-04-10T03:57:51;40.72;;;25.08;;
42094;SDS011;27753;55.724;37.612;2023-04-10T04:00:17;17.00;;;12.35;;
42094;SDS011;27753;55.724;37.612;2023-04-10T04:05:10;16.42;;;11.43;;
42094;SDS011;27753;55.724;37.612;2023-04-10T04:07:36;15.68;;;10.27;;
42094;SDS011;27753;55.724;37.612;2023-04-10T04:10:02;14.95;;;12.82;;
42094;SDS011;27753;55.724;37.612;2023-04-10T04:12:28;20.80;;;14.95;;
42094;SDS011;27753;55.724;37.612;2023-04-10T04:14:54;24.52;;;14.85;;
42094;SDS011;27753;55.724;37.612;2023-04-10T04:17:20;18.13;;;12.73;;
42094;SDS011;27753;55.724;37.612;2023-04-10T04:19:45;16.77;;;12.30;;
42094;SDS011;27753;55.724;37.612;2023-04-10T04:22:11;18.17;;;13.07;;
42094;SDS011;27753;55.724;37.612;2023-04-10T04:24:37;17.30;;;13.02;;
42094;SDS011;27753;55.724;37.612;2023-04-10T04:27:03;27.88;;;14.30;;
42094;SDS011;27753;55.724;37.612;2023-04-10T04:29:30;21.90;;;14.40;;
42094;SDS011;27753;55.724;37.612;2023-04-10T04:31:56;19.50;;;13.07;;
42094;SDS011;27753;55.724;37.612;2023-04-10T04:34:22;18.27;;;13.30;;
42094;SDS011;27753;55.724;37.612;2023-04-10T04:36:47;18.95;;;13.43;;
42094;SDS011;27753;55.724;37.612;2023-04-10T04:39:13;20.55;;;14.43;;
42094;SDS011;27753;55.724;37.612;2023-04-10T04:41:40;21.42;;;14.05;;
42094;SDS011;27753;55.724;37.612;2023-04-10T04:44:05;22.50;;;13.30;;
42094;SDS011;27753;55.724;37.612;2023-04-10T04:46:31;20.90;;;15.40;;
42094;SDS011;27753;55.724;37.612;2023-04-10T04:48:57;24.67;;;15.30;;
42094;SDS011;27753;55.724;37.612;2023-04-10T04:51:23;20.25;;;14.68;;
42094;SDS011;27753;55.724;37.612;2023-04-10T04:53:51;23.10;;;16.50;;
42094;SDS011;27753;55.724;37.612;2023-04-10T04:56:17;27.65;;;16.08;;
42094;SDS011;27753;55.724;37.612;2023-04-10T04:58:43;25.60;;;15.95;;
42094;SDS011;27753;55.724;37.612;2023-04-10T05:01:09;29.20;;;14.57;;
42094;SDS011;27753;55.724;37.612;2023-04-10T05:03:35;23.73;;;15.43;;
42094;SDS011;27753;55.724;37.612;2023-04-10T05:06:00;22.85;;;17.48;;
42094;SDS011;27753;55.724;37.612;2023-04-10T05:08:26;34.67;;;18.27;;
42094;SDS011;27753;55.724;37.612;2023-04-10T05:10:52;24.67;;;16.17;;
42094;SDS011;27753;55.724;37.612;2023-04-10T05:13:18;25.90;;;15.50;;
42094;SDS011;27753;55.724;37.612;2023-04-10T05:15:45;25.40;;;13.70;;
42094;SDS011;27753;55.724;37.612;2023-04-10T05:18:12;17.02;;;12.75;;
42094;SDS011;27753;55.724;37.612;2023-04-10T05:20:38;15.25;;;12.20;;
42094;SDS011;27753;55.724;37.612;2023-04-10T05:23:04;16.75;;;13.88;;
42094;SDS011;27753;55.724;37.612;2023-04-10T05:25:30;15.77;;;13.68;;
42094;SDS011;27753;55.724;37.612;2023-04-10T05:27:56;22.40;;;13.98;;
42094;SDS011;27753;55.724;37.612;2023-04-10T05:30:22;19.40;;;13.02;;
42094;SDS011;27753;55.724;37.612;2023-04-10T05:32:48;21.23;;;14.73;;
42094;SDS011;27753;55.724;37.612;2023-04-10T05:35:14;23.25;;;13.93;;
42094;SDS011;27753;55.724;37.612;2023-04-10T05:37:40;15.27;;;13.27;;
42094;SDS011;27753;55.724;37.612;2023-04-10T05:40:06;21.67;;;13.00;;
42094;SDS011;27753;55.724;37.612;2023-04-10T05:42:33;19.55;;;11.98;;
42094;SDS011;27753;55.724;37.612;2023-04-10T05:44:59;19.52;;;13.07;;
42094;SDS011;27753;55.724;37.612;2023-04-10T05:47:25;25.90;;;13.63;;
42094;SDS011;27753;55.724;37.612;2023-04-10T05:49:51;17.48;;;12.88;;
42094;SDS011;27753;55.724;37.612;2023-04-10T05:52:16;10.57;;;8.73;;
42094;SDS011;27753;55.724;37.612;2023-04-10T05:54:42;14.95;;;10.40;;
42094;SDS011;27753;55.724;37.612;2023-04-10T05:57:10;16.38;;;9.45;;
42094;SDS011;27753;55.724;37.612;2023-04-10T05:59:37;12.32;;;9.27;;
42094;SDS011;27753;55.724;37.612;2023-04-10T06:02:04;12.70;;;10.93;;
42094;SDS011;27753;55.724;37.612;2023-04-10T06:04:32;14.57;;;9.93;;
42094;SDS011;27753;55.724;37.612;2023-04-10T06:06:58;13.98;;;10.27;;
42094;SDS011;27753;55.724;37.612;2023-04-10T06:09:23;12.88;;;10.18;;
42094;SDS011;27753;55.724;37.612;2023-04-10T06:11:49;11.68;;;8.60;;
42094;SDS011;27753;55.724;37.612;2023-04-10T06:14:16;13.57;;;8.75;;
42094;SDS011;27753;55.724;37.612;2023-04-10T06:16:43;11.00;;;8.52;;
42094;SDS011;27753;55.724;37.612;2023-04-10T06:19:09;13.15;;;9.27;;
42094;SDS011;27753;55.724;37.612;2023-04-10T06:21:35;13.45;;;8.90;;
42094;SDS011;27753;55.724;37.612;2023-04-10T06:24:00;11.02;;;9.93;;
42094;SDS011;27753;55.724;37.612;2023-04-10T06:26:26;12.77;;;10.93;;
42094;SDS011;27753;55.724;37.612;2023-04-10T06:28:52;13.43;;;9.82;;
42094;SDS011;27753;55.724;37.612;2023-04-10T06:31:18;12.00;;;9.93;;
42094;SDS011;27753;55.724;37.612;2023-04-10T06:33:46;14.07;;;11.25;;
42094;SDS011;27753;55.724;37.612;2023-04-10T06:36:13;16.85;;;11.13;;
42094;SDS011;27753;55.724;37.612;2023-04-10T06:38:39;15.18;;;12.43;;
42094;SDS011;27753;55.724;37.612;2023-04-10T06:41:05;19.38;;;12.13;;
42094;SDS011;27753;55.724;37.612;2023-04-10T06:43:35;13.98;;;11.52;;
42094;SDS011;27753;55.724;37.612;2023-04-10T06:46:02;13.57;;;11.45;;
42094;SDS011;27753;55.724;37.612;2023-04-10T06:48:29;17.23;;;12.52;;
42094;SDS011;27753;55.724;37.612;2023-04-10T06:50:56;15.10;;;13.32;;
42094;SDS011;27753;55.724;37.612;2023-04-10T06:53:24;17.75;;;14.52;;
42094;SDS011;27753;55.724;37.612;2023-04-10T06:55:51;16.10;;;13.57;;
42094;SDS011;27753;55.724;37.612;2023-04-10T06:58:17;15.57;;;13.05;;
42094;SDS011;27753;55.724;37.612;2023-04-10T07:00:43;17.48;;;13.45;;
42094;SDS011;27753;55.724;37.612;2023-04-10T07:03:09;23.38;;;14.95;;
42094;SDS011;27753;55.724;37.612;2023-04-10T07:05:35;20.90;;;15.63;;
42094;SDS011;27753;55.724;37.612;2023-04-10T07:08:01;24.45;;;15.48;;
42094;SDS011;27753;55.724;37.612;2023-04-10T07:10:27;21.80;;;13.82;;
42094;SDS011;27753;55.724;37.612;2023-04-10T07:12:53;21.80;;;15.45;;
42094;SDS011;27753;55.724;37.612;2023-04-10T07:15:21;17.23;;;13.90;;
42094;SDS011;27753;55.724;37.612;2023-04-10T07:17:47;17.73;;;14.52;;
42094;SDS011;27753;55.724;37.612;2023-04-10T07:20:13;30.13;;;16.08;;
42094;SDS011;27753;55.724;37.612;2023-04-10T07:22:38;20.27;;;12.93;;
42094;SDS011;27753;55.724;37.612;2023-04-10T07:25:05;15.57;;;13.77;;
42094;SDS011;27753;55.724;37.612;2023-04-10T07:27:31;23.38;;;13.32;;
42094;SDS011;27753;55.724;37.612;2023-04-10T07:29:57;16.73;;;13.50;;
42094;SDS011;27753;55.724;37.612;2023-04-10T07:32:23;15.57;;;13.13;;
42094;SDS011;27753;55.724;37.612;2023-04-10T07:34:49;21.80;;;15.02;;
42094;SDS011;27753;55.724;37.612;2023-04-10T07:37:15;17.23;;;13.60;;
42094;SDS011;27753;55.724;37.612;2023-04-10T07:39:42;21.03;;;13.07;;
42094;SDS011;27753;55.724;37.612;2023-04-10T07:42:09;18.30;;;11.20;;
42094;SDS011;27753;55.724;37.612;2023-04-10T07:44:36;17.40;;;11.50;;
42094;SDS011;27753;55.724;37.612;2023-04-10T07:47:02;19.08;;;13.43;;
42094;SDS011;27753;55.724;37.612;2023-04-10T07:49:28;19.35;;;12.23;;
42094;SDS011;27753;55.724;37.612;2023-04-10T07:51:54;20.75;;;12.32;;
42094;SDS011;27753;55.724;37.612;2023-04-10T07:54:20;12.55;;;10.40;;
42094;SDS011;27753;55.724;37.612;2023-04-10T07:56:46;12.93;;;10.85;;
42094;SDS011;27753;55.724;37.612;2023-04-10T07:59:12;14.15;;;11.82;;
42094;SDS011;27753;55.724;37.612;2023-04-10T08:01:38;19.48;;;12.05;;
42094;SDS011;27753;55.724;37.612;2023-04-10T08:04:05;18.05;;;12.02;;
42094;SDS011;27753;55.724;37.612;2023-04-10T08:06:31;16.60;;;11.43;;
42094;SDS011;27753;55.724;37.612;2023-04-10T08:08:57;17.27;;;11.82;;
42094;SDS011;27753;55.724;37.612;2023-04-10T08:11:27;25.23;;;13.40;;
42094;SDS011;27753;55.724;37.612;2023-04-10T08:13:55;22.13;;;12.68;;
42094;SDS011;27753;55.724;37.612;2023-04-10T08:16:23;18.70;;;10.63;;
42094;SDS011;27753;55.724;37.612;2023-04-10T08:18:50;13.63;;;10.65;;
42094;SDS011;27753;55.724;37.612;2023-04-10T08:21:17;12.67;;;11.00;;
42094;SDS011;27753;55.724;37.612;2023-04-10T08:23:43;21.20;;;11.93;;
42094;SDS011;27753;55.724;37.612;2023-04-10T08:26:12;15.43;;;11.75;;
42094;SDS011;27753;55.724;37.612;2023-04-10T08:28:38;11.55;;;10.32;;
42094;SDS011;27753;55.724;37.612;2023-04-10T08:31:04;14.43;;;10.98;;
42094;SDS011;27753;55.724;37.612;2023-04-10T08:33:30;27.77;;;14.98;;
42094;SDS011;27753;55.724;37.612;2023-04-10T08:35:56;11.60;;;10.30;;
42094;SDS011;27753;55.724;37.612;2023-04-10T08:38:22;16.95;;;12.18;;
42094;SDS011;27753;55.724;37.612;2023-04-10T08:40:49;12.00;;;9.73;;
42094;SDS011;27753;55.724;37.612;2023-04-10T08:43:15;12.05;;;9.95;;
42094;SDS011;27753;55.724;37.612;2023-04-10T08:45:41;15.45;;;11.32;;
42094;SDS011;27753;55.724;37.612;2023-04-10T08:48:08;16.00;;;13.40;;
42094;SDS011;27753;55.724;37.612;2023-04-10T08:50:35;17.45;;;13.52;;
42094;SDS011;27753;55.724;37.612;2023-04-10T08:53:10;16.48;;;13.93;;
42094;SDS011;27753;55.724;37.612;2023-04-10T08:55:38;17.00;;;13.45;;
42094;SDS011;27753;55.724;37.612;2023-04-10T09:00:34;20.40;;;12.63;;
42094;SDS011;27753;55.724;37.612;2023-04-10T09:03:03;18.42;;;13.02;;
42094;SDS011;27753;55.724;37.612;2023-04-10T09:05:32;26.92;;;15.35;;
42094;SDS011;27753;55.724;37.612;2023-04-10T09:08:00;20.75;;;14.10;;
42094;SDS011;27753;55.724;37.612;2023-04-10T09:10:27;20.90;;;13.48;;
42094;SDS011;27753;55.724;37.612;2023-04-10T09:12:53;20.73;;;14.70;;
42094;SDS011;27753;55.724;37.612;2023-04-10T09:15:19;16.80;;;13.90;;
42094;SDS011;27753;55.724;37.612;2023-04-10T09:17:55;29.05;;;16.20;;
42094;SDS011;27753;55.724;37.612;2023-04-10T09:20:23;23.92;;;15.07;;
42094;SDS011;27753;55.724;37.612;2023-04-10T09:22:50;19.50;;;13.00;;
42094;SDS011;27753;55.724;37.612;2023-04-10T09:25:32;15.63;;;12.68;;
42094;SDS011;27753;55.724;37.612;2023-04-10T09:28:07;25.83;;;13.60;;
42094;SDS011;27753;55.724;37.612;2023-04-10T09:30:40;21.48;;;13.93;;
42094;SDS011;27753;55.724;37.612;2023-04-10T09:35:49;20.75;;;13.80;;
42094;SDS011;27753;55.724;37.612;2023-04-10T09:38:19;16.15;;;13.18;;
42094;SDS011;27753;55.724;37.612;2023-04-10T09:40:46;20.02;;;13.68;;
42094;SDS011;27753;55.724;37.612;2023-04-10T09:43:16;20.35;;;13.95;;
42094;SDS011;27753;55.724;37.612;2023-04-10T09:45:53;21.23;;;14.57;;
42094;SDS011;27753;55.724;37.612;2023-04-10T09:48:23;20.50;;;14.48;;
42094;SDS011;27753;55.724;37.612;2023-04-10T09:50:51;22.02;;;14.35;;
42094;SDS011;27753;55.724;37.612;2023-04-10T09:53:17;19.98;;;14.07;;
42094;SDS011;27753;55.724;37.612;2023-04-10T09:58:11;24.15;;;13.88;;
42094;SDS011;27753;55.724;37.612;2023-04-10T10:00:41;21.77;;;14.88;;
42094;SDS011;27753;55.724;37.612;2023-04-10T10:03:12;16.63;;;11.65;;
42094;SDS011;27753;55.724;37.612;2023-04-10T10:05:41;19.35;;;12.85;;
42094;SDS011;27753;55.724;37.612;2023-04-10T10:08:08;20.17;;;12.77;;
42094;SDS011;27753;55.724;37.612;2023-04-10T10:10:39;14.35;;;12.27;;
42094;SDS011;27753;55.724;37.612;2023-04-10T10:13:27;16.52;;;12.13;;
42094;SDS011;27753;55.724;37.612;2023-04-10T10:21:12;15.18;;;11.45;;
42094;SDS011;27753;55.724;37.612;2023-04-10T10:23:39;20.97;;;12.53;;
42094;SDS011;27753;55.724;37.612;2023-04-10T10:26:07;16.67;;;12.80;;
42094;SDS011;27753;55.724;37.612;2023-04-10T10:28:35;16.40;;;12.48;;
42094;SDS011;27753;55.724;37.612;2023-04-10T10:31:02;19.27;;;12.13;;
42094;SDS011;27753;55.724;37.612;2023-04-10T10:33:28;15.35;;;13.15;;
42094;SDS011;27753;55.724;37.612;2023-04-10T10:35:59;13.40;;;12.07;;
42094;SDS011;27753;55.724;37.612;2023-04-10T10:38:25;13.55;;;11.70;;
42094;SDS011;27753;55.724;37.612;2023-04-10T10:41:07;17.63;;;12.20;;
42094;SDS011;27753;55.724;37.612;2023-04-10T10:46:34;12.88;;;11.05;;
42094;SDS011;27753;55.724;37.612;2023-04-10T10:49:07;13.50;;;10.68;;
42094;SDS011;27753;55.724;37.612;2023-04-10T10:51:43;15.13;;;11.77;;
42094;SDS011;27753;55.724;37.612;2023-04-10T10:54:30;13.25;;;11.02;;
42094;SDS011;27753;55.724;37.612;2023-04-10T10:56:57;12.60;;;11.32;;
42094;SDS011;27753;55.724;37.612;2023-04-10T11:02:14;14.43;;;11.32;;
42094;SDS011;27753;55.724;37.612;2023-04-10T11:04:42;14.25;;;12.40;;
42094;SDS011;27753;55.724;37.612;2023-04-10T11:07:09;19.92;;;12.88;;
42094;SDS011;27753;55.724;37.612;2023-04-10T11:09:51;16.48;;;13.77;;
42094;SDS011;27753;55.724;37.612;2023-04-10T11:12:22;19.95;;;13.38;;
42094;SDS011;27753;55.724;37.612;2023-04-10T11:14:59;17.00;;;13.18;;
42094;SDS011;27753;55.724;37.612;2023-04-10T11:17:45;15.43;;;12.80;;
42094;SDS011;27753;55.724;37.612;2023-04-10T11:20:13;21.35;;;13.35;;
42094;SDS011;27753;55.724;37.612;2023-04-10T11:36:17;17.30;;;14.00;;
42094;SDS011;27753;55.724;37.612;2023-04-10T11:39:02;22.20;;;13.38;;
42094;SDS011;27753;55.724;37.612;2023-04-10T11:41:32;23.63;;;13.80;;
42094;SDS011;27753;55.724;37.612;2023-04-10T11:44:00;19.33;;;14.02;;
42094;SDS011;27753;55.724;37.612;2023-04-10T11:46:28;14.20;;;12.70;;
42094;SDS011;27753;55.724;37.612;2023-04-10T11:48:58;18.63;;;13.63;;
42094;SDS011;27753;55.724;37.612;2023-04-10T11:51:25;18.98;;;13.75;;
42094;SDS011;27753;55.724;37.612;2023-04-10T11:56:37;16.55;;;13.18;;
42094;SDS011;27753;55.724;37.612;2023-04-10T11:59:04;23.75;;;14.65;;
42094;SDS011;27753;55.724;37.612;2023-04-10T12:01:35;19.75;;;14.52;;
42094;SDS011;27753;55.724;37.612;2023-04-10T12:04:01;18.25;;;14.43;;
42094;SDS011;27753;55.724;37.612;2023-04-10T12:06:28;17.33;;;14.35;;
42094;SDS011;27753;55.724;37.612;2023-04-10T12:08:55;17.27;;;13.88;;
42094;SDS011;27753;55.724;37.612;2023-04-10T12:11:24;20.35;;;13.98;;
42094;SDS011;27753;55.724;37.612;2023-04-10T12:13:53;15.65;;;14.00;;
42094;SDS011;27753;55.724;37.612;2023-04-10T12:16:20;18.17;;;13.43;;
42094;SDS011;27753;55.724;37.612;2023-04-10T12:18:47;18.55;;;14.15;;
42094;SDS011;27753;55.724;37.612;2023-04-10T12:21:14;21.33;;;14.77;;
42094;SDS011;27753;55.724;37.612;2023-04-10T12:23:40;17.92;;;13.18;;
42094;SDS011;27753;55.724;37.612;2023-04-10T12:26:16;25.58;;;13.00;;
42094;SDS011;27753;55.724;37.612;2023-04-10T12:28:52;27.88;;;14.55;;
42094;SDS011;27753;55.724;37.612;2023-04-10T12:31:32;23.45;;;14.13;;
42094;SDS011;27753;55.724;37.612;2023-04-10T12:33:59;21.15;;;15.30;;
42094;SDS011;27753;55.724;37.612;2023-04-10T12:36:27;21.45;;;15.18;;
42094;SDS011;27753;55.724;37.612;2023-04-10T12:38:54;25.55;;;15.20;;
42094;SDS011;27753;55.724;37.612;2023-04-10T12:41:22;20.23;;;14.98;;
42094;SDS011;27753;55.724;37.612;2023-04-10T12:44:04;34.55;;;17.48;;
42094;SDS011;27753;55.724;37.612;2023-04-10T12:46:32;24.05;;;14.30;;
42094;SDS011;27753;55.724;37.612;2023-04-10T12:49:07;17.65;;;12.90;;
42094;SDS011;27753;55.724;37.612;2023-04-10T12:51:43;22.98;;;15.68;;
42094;SDS011;27753;55.724;37.612;2023-04-10T12:54:10;20.23;;;15.52;;
42094;SDS011;27753;55.724;37.612;2023-04-10T12:56:40;22.48;;;14.00;;
42094;SDS011;27753;55.724;37.612;2023-04-10T12:59:07;17.58;;;13.02;;
42094;SDS011;27753;55.724;37.612;2023-04-10T13:01:33;20.10;;;13.98;;
42094;SDS011;27753;55.724;37.612;2023-04-10T13:03:59;24.00;;;16.08;;
42094;SDS011;27753;55.724;37.612;2023-04-10T13:06:25;20.40;;;16.25;;
42094;SDS011;27753;55.724;37.612;2023-04-10T13:08:51;20.13;;;16.65;;
42094;SDS011;27753;55.724;37.612;2023-04-10T13:11:17;25.63;;;16.63;;
42094;SDS011;27753;55.724;37.612;2023-04-10T13:13:43;21.10;;;15.35;;
42094;SDS011;27753;55.724;37.612;2023-04-10T13:16:08;34.80;;;16.75;;
42094;SDS011;27753;55.724;37.612;2023-04-10T13:18:37;25.20;;;16.38;;
42094;SDS011;27753;55.724;37.612;2023-04-10T13:21:03;24.45;;;17.23;;
42094;SDS011;27753;55.724;37.612;2023-04-10T13:23:29;19.25;;;14.25;;
42094;SDS011;27753;55.724;37.612;2023-04-10T13:25:55;16.88;;;13.43;;
42094;SDS011;27753;55.724;37.612;2023-04-10T13:30:48;20.23;;;15.68;;
42094;SDS011;27753;55.724;37.612;2023-04-10T13:33:14;21.52;;;14.32;;
42094;SDS011;27753;55.724;37.612;2023-04-10T13:35:40;24.48;;;15.20;;
42094;SDS011;27753;55.724;37.612;2023-04-10T13:38:06;25.38;;;16.48;;
42094;SDS011;27753;55.724;37.612;2023-04-10T13:40:33;30.17;;;16.23;;
42094;SDS011;27753;55.724;37.612;2023-04-10T13:42:59;24.98;;;15.90;;
42094;SDS011;27753;55.724;37.612;2023-04-10T13:45:25;28.85;;;15.23;;
42094;SDS011;27753;55.724;37.612;2023-04-10T13:47:51;20.67;;;14.63;;
42094;SDS011;27753;55.724;37.612;2023-04-10T13:50:17;24.88;;;16.25;;
42094;SDS011;27753;55.724;37.612;2023-04-10T13:52:43;25.17;;;15.23;;
42094;SDS011;27753;55.724;37.612;2023-04-10T13:55:08;23.85;;;16.20;;
42094;SDS011;27753;55.724;37.612;2023-04-10T13:57:34;19.35;;;14.80;;
42094;SDS011;27753;55.724;37.612;2023-04-10T14:00:00;20.75;;;15.88;;
42094;SDS011;27753;55.724;37.612;2023-04-10T14:02:27;24.67;;;16.33;;
42094;SDS011;27753;55.724;37.612;2023-04-10T14:04:52;28.60;;;16.83;;
42094;SDS011;27753;55.724;37.612;2023-04-10T14:07:18;24.95;;;16.42;;
42094;SDS011;27753;55.724;37.612;2023-04-10T14:09:44;25.25;;;18.08;;
42094;SDS011;27753;55.724;37.612;2023-04-10T14:12:11;21.08;;;16.27;;
42094;SDS011;27753;55.724;37.612;2023-04-10T14:14:40;20.70;;;16.52;;
42094;SDS011;27753;55.724;37.612;2023-04-10T14:17:06;24.03;;;17.60;;
42094;SDS011;27753;55.724;37.612;2023-04-10T14:19:33;25.65;;;16.92;;
42094;SDS011;27753;55.724;37.612;2023-04-10T14:22:00;28.77;;;17.00;;
42094;SDS011;27753;55.724;37.612;2023-04-10T14:24:26;25.55;;;18.00;;
42094;SDS011;27753;55.724;37.612;2023-04-10T14:26:52;26.13;;;17.33;;
42094;SDS011;27753;55.724;37.612;2023-04-10T14:29:22;26.45;;;17.80;;
42094;SDS011;27753;55.724;37.612;2023-04-10T14:34:16;32.05;;;18.63;;
42094;SDS011;27753;55.724;37.612;2023-04-10T14:36:42;21.95;;;17.27;;
42094;SDS011;27753;55.724;37.612;2023-04-10T14:39:08;33.10;;;18.17;;
42094;SDS011;27753;55.724;37.612;2023-04-10T14:41:34;26.17;;;18.05;;
42094;SDS011;27753;55.724;37.612;2023-04-10T14:44:01;23.85;;;18.70;;
42094;SDS011;27753;55.724;37.612;2023-04-10T14:46:27;37.58;;;19.73;;
42094;SDS011;27753;55.724;37.612;2023-04-10T14:48:53;25.75;;;18.98;;
42094;SDS011;27753;55.724;37.612;2023-04-10T14:51:19;24.00;;;19.75;;
42094;SDS011;27753;55.724;37.612;2023-04-10T14:53:45;32.58;;;19.50;;
42094;SDS011;27753;55.724;37.612;2023-04-10T14:56:11;27.92;;;20.00;;
42094;SDS011;27753;55.724;37.612;2023-04-10T14:58:38;22.60;;;18.67;;
42094;SDS011;27753;55.724;37.612;2023-04-10T15:01:10;29.55;;;19.65;;
42094;SDS011;27753;55.724;37.612;2023-04-10T15:03:37;29.63;;;20.85;;
42094;SDS011;27753;55.724;37.612;2023-04-10T15:06:04;29.07;;;20.67;;